Time;durP1;ratioP1;P1;durP2;ratioP2;P2;SDS_P1;SDS_P2;PMS_P1;PMS_P2;Temp;Humidity;BMP_temperature;BMP_pressure;BME280_temperature;BME280_humidity;BME280_pressure;Samples;Min_cycle;Max_cycle;Signal;HPM_P1;HPM_P2
2022/03/20 00:01:02;;;;;;;27.75;16.10;;;4.00;99.90;;;;;;5150277;27;20114;-39
2022/03/20 00:03:28;;;;;;;34.47;15.63;;;4.00;99.90;;;;;;5150431;27;20494;-39
2022/03/20 00:05:54;;;;;;;29.25;16.42;;;3.90;99.90;;;;;;5149677;27;20031;-39
2022/03/20 00:08:19;;;;;;;31.30;16.20;;;3.90;99.90;;;;;;5150132;27;20390;-39
2022/03/20 00:10:48;;;;;;;28.65;17.27;;;3.90;99.90;;;;;;5150430;27;20015;-39
2022/03/20 00:13:21;;;;;;;29.77;17.15;;;3.80;99.90;;;;;;5150691;27;20019;-39
2022/03/20 00:15:49;;;;;;;32.83;18.83;;;3.80;99.90;;;;;;5148534;27;20559;-39
2022/03/20 00:18:16;;;;;;;35.92;18.52;;;3.80;99.90;;;;;;5150356;27;20475;-39
2022/03/20 00:20:46;;;;;;;30.77;18.20;;;3.80;99.90;;;;;;5150472;27;20026;-39
2022/03/20 00:23:13;;;;;;;30.70;17.67;;;3.70;99.90;;;;;;5134931;27;20027;-39
2022/03/20 00:25:41;;;;;;;29.77;17.15;;;3.80;99.90;;;;;;5142048;27;20026;-40
2022/03/20 00:28:06;;;;;;;30.90;16.52;;;3.70;99.90;;;;;;5149151;27;20055;-39
2022/03/20 00:30:33;;;;;;;33.72;17.80;;;3.70;99.90;;;;;;5150334;27;20282;-39
2022/03/20 00:32:59;;;;;;;36.40;17.95;;;3.70;99.90;;;;;;5150065;27;20440;-39
2022/03/20 00:35:24;;;;;;;30.38;19.38;;;3.60;99.90;;;;;;5149942;27;20105;-39
2022/03/20 00:37:49;;;;;;;32.83;18.30;;;3.60;99.90;;;;;;5149406;27;20064;-39
2022/03/20 00:40:15;;;;;;;32.33;18.33;;;3.60;99.90;;;;;;5150096;27;20579;-39
2022/03/20 00:42:41;;;;;;;31.52;17.30;;;3.60;99.90;;;;;;5149986;27;20102;-39
2022/03/20 00:45:07;;;;;;;32.60;17.67;;;3.60;99.90;;;;;;5150076;27;20034;-39
2022/03/20 00:47:33;;;;;;;32.35;18.83;;;3.50;99.90;;;;;;5149561;27;20031;-39
2022/03/20 00:49:58;;;;;;;34.40;18.58;;;3.50;99.90;;;;;;5149937;27;20026;-39
2022/03/20 00:52:24;;;;;;;32.53;18.23;;;3.50;99.90;;;;;;5135036;27;20518;-39
2022/03/20 00:54:49;;;;;;;36.25;19.00;;;3.40;99.90;;;;;;5141147;27;20030;-39
2022/03/20 00:57:16;;;;;;;34.38;18.70;;;3.50;99.90;;;;;;5147884;27;20026;-40
2022/03/20 00:59:41;;;;;;;36.35;19.45;;;3.40;99.90;;;;;;5151410;27;20026;-39
2022/03/20 01:02:08;;;;;;;31.70;17.77;;;3.40;99.90;;;;;;5153766;27;20050;-39
2022/03/20 01:04:34;;;;;;;38.13;19.33;;;3.40;99.90;;;;;;5153704;27;20067;-39
2022/03/20 01:07:01;;;;;;;40.28;20.25;;;3.40;99.90;;;;;;5152806;27;20183;-39
2022/03/20 01:09:28;;;;;;;32.47;18.65;;;3.40;99.90;;;;;;5153780;27;20130;-39
2022/03/20 01:11:54;;;;;;;32.33;19.25;;;3.40;99.90;;;;;;5153760;27;20542;-39
2022/03/20 01:14:20;;;;;;;38.30;19.33;;;3.40;99.90;;;;;;5153865;27;20023;-39
2022/03/20 01:16:46;;;;;;;31.63;18.77;;;3.40;99.90;;;;;;5151900;27;20113;-39
2022/03/20 01:19:11;;;;;;;36.72;19.90;;;3.30;99.90;;;;;;5153721;27;20494;-39
2022/03/20 01:21:37;;;;;;;40.30;19.45;;;3.30;99.90;;;;;;5148630;27;20097;-39
2022/03/20 01:24:03;;;;;;;34.90;20.05;;;3.20;99.90;;;;;;5137099;27;20033;-40
2022/03/20 01:26:29;;;;;;;32.47;19.95;;;3.30;99.90;;;;;;5152449;27;20097;-40
2022/03/20 01:28:54;;;;;;;39.80;20.75;;;3.30;99.90;;;;;;5153352;27;20018;-39
2022/03/20 01:31:20;;;;;;;38.85;20.83;;;3.30;99.90;;;;;;5153219;27;20033;-39
2022/03/20 01:33:46;;;;;;;38.08;20.25;;;3.20;99.90;;;;;;5153780;27;20107;-39
2022/03/20 01:36:11;;;;;;;37.78;20.02;;;3.20;99.90;;;;;;5152401;27;20029;-38
2022/03/20 01:38:37;;;;;;;40.50;20.65;;;3.20;99.90;;;;;;5151496;27;20548;-39
2022/03/20 01:41:02;;;;;;;38.72;20.20;;;3.20;99.90;;;;;;5151638;27;20436;-38
2022/03/20 01:43:28;;;;;;;42.17;21.88;;;3.20;99.90;;;;;;5152809;27;20023;-39
2022/03/20 01:45:54;;;;;;;36.13;19.20;;;3.20;99.90;;;;;;5152186;27;20030;-39
2022/03/20 01:48:20;;;;;;;35.58;20.40;;;3.10;99.90;;;;;;5152857;27;20019;-39
2022/03/20 01:50:45;;;;;;;35.70;20.05;;;3.10;99.90;;;;;;5152671;27;20027;-38
2022/03/20 01:53:11;;;;;;;36.70;21.30;;;3.00;99.90;;;;;;5138312;27;20019;-39
2022/03/20 01:55:37;;;;;;;36.33;20.42;;;3.00;99.90;;;;;;5143293;27;20046;-38
2022/03/20 01:58:03;;;;;;;37.17;21.00;;;3.00;99.90;;;;;;5153313;27;20363;-38
2022/03/20 02:00:29;;;;;;;39.72;21.67;;;3.00;99.90;;;;;;5152815;27;20491;-39
2022/03/20 02:02:55;;;;;;;38.70;21.98;;;3.00;99.90;;;;;;5152748;27;20034;-38
2022/03/20 02:05:21;;;;;;;38.67;19.90;;;3.00;99.90;;;;;;5152463;27;20035;-39
2022/03/20 02:07:47;;;;;;;34.13;19.30;;;3.00;99.90;;;;;;5151795;27;20079;-39
2022/03/20 02:10:15;;;;;;;33.70;20.98;;;2.90;99.90;;;;;;5151949;27;20019;-38
2022/03/20 02:12:42;;;;;;;33.80;21.13;;;2.90;99.90;;;;;;5152403;27;20052;-39
2022/03/20 02:15:11;;;;;;;32.97;19.92;;;2.90;99.90;;;;;;5152277;27;20018;-38
2022/03/20 02:17:38;;;;;;;43.80;20.30;;;2.80;99.90;;;;;;5151630;27;20049;-38
2022/03/20 02:20:08;;;;;;;38.47;21.63;;;2.80;99.90;;;;;;5150796;27;20094;-39
2022/03/20 02:22:37;;;;;;;36.95;20.52;;;2.80;99.90;;;;;;5139840;27;20114;-39
2022/03/20 02:25:08;;;;;;;36.20;21.43;;;2.80;99.90;;;;;;5143775;27;20018;-38
2022/03/20 02:27:34;;;;;;;40.17;21.52;;;2.70;99.90;;;;;;5151793;27;20018;-39
2022/03/20 02:30:02;;;;;;;38.38;21.38;;;2.70;99.90;;;;;;5150653;27;20023;-38
2022/03/20 02:32:30;;;;;;;34.90;20.45;;;2.70;99.90;;;;;;5151756;27;20430;-39
2022/03/20 02:34:58;;;;;;;38.88;20.73;;;2.60;99.90;;;;;;5124226;27;20032;-38
2022/03/20 02:37:24;;;;;;;37.70;22.27;;;2.60;99.90;;;;;;5109737;28;20027;-38
2022/03/20 02:39:53;;;;;;;36.63;21.05;;;2.60;99.90;;;;;;5110585;28;20435;-39
2022/03/20 02:42:19;;;;;;;40.30;22.58;;;2.60;99.90;;;;;;5110395;27;20034;-39
2022/03/20 02:44:57;;;;;;;36.13;20.95;;;2.50;99.90;;;;;;5110905;28;20023;-38
2022/03/20 02:47:25;;;;;;;37.88;21.52;;;2.50;99.90;;;;;;5109861;28;20383;-38
2022/03/20 02:50:14;;;;;;;38.55;21.08;;;2.50;99.90;;;;;;5110530;28;20098;-39
2022/03/20 02:52:39;;;;;;;41.10;22.10;;;2.50;99.90;;;;;;5119541;27;20106;-38
2022/03/20 02:55:05;;;;;;;37.03;21.45;;;2.50;99.90;;;;;;5141590;27;20106;-38
2022/03/20 02:57:31;;;;;;;37.97;21.73;;;2.50;99.90;;;;;;5116787;27;20301;-38
2022/03/20 03:00:00;;;;;;;43.17;21.27;;;2.50;99.90;;;;;;5125790;27;20291;-38
2022/03/20 03:02:29;;;;;;;38.72;22.80;;;2.50;99.90;;;;;;5130563;27;20465;-38
2022/03/20 03:04:59;;;;;;;32.88;19.90;;;2.40;99.90;;;;;;5114984;27;20035;-38
2022/03/20 03:07:26;;;;;;;39.00;21.63;;;2.40;99.90;;;;;;5109279;27;20019;-39
2022/03/20 03:12:36;;;;;;;41.40;22.30;;;2.40;99.90;;;;;;5111597;27;20085;-38
2022/03/20 03:15:19;;;;;;;39.35;20.83;;;2.40;99.90;;;;;;5108608;28;20057;-38
2022/03/20 03:17:46;;;;;;;43.20;21.83;;;2.30;99.90;;;;;;5121506;27;20110;-39
2022/03/20 03:20:12;;;;;;;40.35;21.33;;;2.30;99.90;;;;;;5130513;27;20026;-38
2022/03/20 03:22:37;;;;;;;39.33;21.63;;;2.40;99.90;;;;;;5127960;27;20023;-39
2022/03/20 03:25:03;;;;;;;36.40;21.65;;;2.30;99.90;;;;;;5141292;27;20425;-38
2022/03/20 03:27:28;;;;;;;35.83;21.13;;;2.30;99.90;;;;;;5150455;27;20033;-39
2022/03/20 03:29:54;;;;;;;44.05;21.60;;;2.30;99.90;;;;;;5151204;27;20022;-38
2022/03/20 03:32:19;;;;;;;42.72;23.10;;;2.30;99.90;;;;;;5151204;27;20035;-39
2022/03/20 03:37:32;;;;;;;44.65;22.20;;;2.20;99.90;;;;;;5150300;27;20531;-39
2022/03/20 03:40:17;;;;;;;40.20;22.20;;;2.20;99.90;;;;;;5150627;27;20023;-39
2022/03/20 03:42:43;;;;;;;38.35;21.48;;;2.20;99.90;;;;;;5126499;27;20492;-39
2022/03/20 03:45:09;;;;;;;44.70;21.27;;;2.20;99.90;;;;;;5131435;27;20110;-38
2022/03/20 03:47:35;;;;;;;42.33;21.27;;;2.20;99.90;;;;;;5110230;27;20023;-38
2022/03/20 03:50:01;;;;;;;44.60;21.52;;;2.20;99.90;;;;;;5109572;28;20051;-38
2022/03/20 03:52:26;;;;;;;42.25;20.80;;;2.20;99.90;;;;;;5114255;27;20438;-39
2022/03/20 03:54:52;;;;;;;41.28;22.25;;;2.10;99.90;;;;;;5141691;27;20352;-39
2022/03/20 03:57:21;;;;;;;39.15;20.98;;;2.10;99.90;;;;;;5149737;27;20060;-39
2022/03/20 03:59:47;;;;;;;42.72;20.48;;;2.10;99.90;;;;;;5150275;27;20030;-38
2022/03/20 04:02:13;;;;;;;42.15;21.95;;;2.10;99.90;;;;;;5150251;27;20023;-38
2022/03/20 04:04:39;;;;;;;43.28;21.45;;;2.10;99.90;;;;;;5148895;27;20475;-38
2022/03/20 04:07:04;;;;;;;39.60;21.55;;;2.10;99.90;;;;;;5132749;27;20285;-38
2022/03/20 04:09:30;;;;;;;38.13;21.17;;;2.10;99.90;;;;;;5141362;27;20296;-39
2022/03/20 04:11:57;;;;;;;40.17;21.80;;;2.10;99.90;;;;;;5150395;27;20399;-39
2022/03/20 04:14:22;;;;;;;36.28;21.45;;;2.10;99.90;;;;;;5150235;27;20396;-39
2022/03/20 04:16:49;;;;;;;43.22;22.83;;;2.10;99.90;;;;;;5149946;27;20298;-39
2022/03/20 04:19:14;;;;;;;37.58;22.13;;;2.00;99.90;;;;;;5150107;27;20030;-39
2022/03/20 04:21:40;;;;;;;36.95;20.67;;;2.00;99.90;;;;;;5149968;27;20023;-39
2022/03/20 04:24:07;;;;;;;35.80;20.52;;;2.00;99.90;;;;;;5148870;27;20547;-39
2022/03/20 04:26:34;;;;;;;43.88;22.42;;;2.00;99.90;;;;;;5149465;27;20019;-39
2022/03/20 04:29:00;;;;;;;39.75;22.02;;;2.00;99.90;;;;;;5150762;27;20026;-38
2022/03/20 04:31:26;;;;;;;38.40;21.40;;;2.00;99.90;;;;;;5150075;27;20023;-38
2022/03/20 04:33:54;;;;;;;37.90;20.55;;;1.90;99.90;;;;;;5152463;27;20305;-38
2022/03/20 04:36:24;;;;;;;40.35;22.15;;;1.90;99.90;;;;;;5151107;27;20023;-38
2022/03/20 04:38:51;;;;;;;49.40;23.75;;;1.90;99.90;;;;;;5136092;27;20102;-39
2022/03/20 04:41:17;;;;;;;42.05;22.30;;;1.90;99.90;;;;;;5152218;27;20038;-38
2022/03/20 04:43:50;;;;;;;38.03;21.10;;;1.80;99.90;;;;;;5154268;27;20027;-39
2022/03/20 04:46:16;;;;;;;40.55;22.42;;;1.90;99.90;;;;;;5153933;27;20079;-38
2022/03/20 04:59:39;;;;;;;40.88;21.98;;;1.80;99.90;;;;;;5154242;27;20041;-38
2022/03/20 05:02:04;;;;;;;43.60;22.85;;;1.70;99.90;;;;;;5154075;27;20023;-38
2022/03/20 05:04:30;;;;;;;42.70;21.52;;;1.70;99.90;;;;;;5153654;27;20031;-38
2022/03/20 05:06:56;;;;;;;38.15;21.85;;;1.70;99.90;;;;;;5152645;27;20034;-38
2022/03/20 05:14:50;;;;;;;37.40;20.90;;;1.70;99.90;;;;;;5153711;27;20045;-38
2022/03/20 05:17:16;;;;;;;43.17;21.38;;;1.70;99.90;;;;;;5151639;27;20015;-38
2022/03/20 05:19:41;;;;;;;36.35;19.40;;;1.70;99.90;;;;;;5152872;27;20031;-38
2022/03/20 05:22:11;;;;;;;39.78;22.13;;;1.70;99.90;;;;;;5141753;27;20032;-38
2022/03/20 05:24:38;;;;;;;40.58;21.42;;;1.60;99.80;;;;;;5144027;27;20065;-38
2022/03/20 05:27:05;;;;;;;43.50;21.77;;;1.60;99.70;;;;;;5151692;27;20126;-39
2022/03/20 05:29:32;;;;;;;37.33;21.58;;;1.60;99.50;;;;;;5152421;27;20433;-39
2022/03/20 05:32:00;;;;;;;45.58;22.63;;;1.60;99.50;;;;;;5152557;27;20073;-39
2022/03/20 05:34:26;;;;;;;40.13;21.08;;;1.60;99.30;;;;;;5152546;27;20019;-38
2022/03/20 05:36:52;;;;;;;42.85;22.48;;;1.60;99.10;;;;;;5150669;27;20019;-38
2022/03/20 05:39:18;;;;;;;37.00;21.48;;;1.60;99.30;;;;;;5152382;27;20019;-47
2022/03/20 05:41:46;;;;;;;38.50;21.25;;;1.60;99.00;;;;;;5151168;27;20034;-47
2022/03/20 05:44:12;;;;;;;38.65;20.42;;;1.60;99.10;;;;;;5151676;27;20019;-47
2022/03/20 05:46:38;;;;;;;39.78;22.10;;;1.60;99.20;;;;;;5151254;27;20113;-47
2022/03/20 05:49:05;;;;;;;39.15;20.77;;;1.60;99.60;;;;;;5136448;27;20063;-47
2022/03/20 05:51:31;;;;;;;49.55;21.83;;;1.60;98.50;;;;;;5110996;28;20571;-47
2022/03/20 05:53:57;;;;;;;39.92;21.73;;;1.70;98.50;;;;;;5134427;27;20096;-38
2022/03/20 05:59:07;;;;;;;44.17;22.10;;;1.70;98.80;;;;;;5152518;27;20072;-38
2022/03/20 06:01:32;;;;;;;35.65;21.33;;;1.80;98.70;;;;;;5152650;27;20063;-38
2022/03/20 06:03:58;;;;;;;42.60;23.05;;;1.80;98.70;;;;;;5152702;27;20027;-38
2022/03/20 06:06:23;;;;;;;41.88;20.83;;;1.80;98.40;;;;;;5151412;27;20101;-38
2022/03/20 06:08:49;;;;;;;41.92;21.25;;;1.90;98.00;;;;;;5152083;27;20035;-39
2022/03/20 06:11:15;;;;;;;39.35;20.48;;;1.90;97.60;;;;;;5152418;27;20054;-38
2022/03/20 06:13:41;;;;;;;38.53;20.70;;;1.90;97.90;;;;;;5152291;27;20021;-39
2022/03/20 06:16:08;;;;;;;40.08;21.50;;;1.90;97.40;;;;;;5151487;27;20152;-41
2022/03/20 06:18:33;;;;;;;38.97;21.75;;;2.00;97.40;;;;;;5140660;27;20011;-39
2022/03/20 06:20:59;;;;;;;35.88;18.77;;;2.00;97.40;;;;;;5119277;27;20023;-39
2022/03/20 06:23:24;;;;;;;35.88;20.73;;;2.10;97.40;;;;;;5123424;27;20023;-39
2022/03/20 06:26:11;;;;;;;39.53;20.55;;;2.10;96.90;;;;;;5120886;27;20058;-39
2022/03/20 06:28:40;;;;;;;41.33;21.20;;;2.20;96.70;;;;;;5077244;28;20086;-39
2022/03/20 06:31:09;;;;;;;38.28;19.65;;;2.20;96.50;;;;;;5077588;28;20056;-39
2022/03/20 06:33:35;;;;;;;40.05;20.90;;;2.20;96.00;;;;;;5113025;27;20034;-38
2022/03/20 06:36:01;;;;;;;38.05;20.63;;;2.30;96.40;;;;;;5119881;27;20016;-39
2022/03/20 06:38:26;;;;;;;40.88;22.48;;;2.30;96.20;;;;;;5118689;27;20076;-39
2022/03/20 06:40:52;;;;;;;36.35;21.08;;;2.30;95.70;;;;;;5121307;27;20053;-39
2022/03/20 06:43:17;;;;;;;36.33;20.70;;;2.40;95.80;;;;;;5125627;27;20034;-39
2022/03/20 06:45:43;;;;;;;40.30;21.95;;;2.40;95.80;;;;;;5120003;27;20082;-38
2022/03/20 06:48:08;;;;;;;40.28;21.77;;;2.40;95.40;;;;;;5125012;27;20115;-39
2022/03/20 06:50:34;;;;;;;39.13;20.88;;;2.50;95.20;;;;;;5130659;27;20029;-39
2022/03/20 06:53:04;;;;;;;41.22;21.85;;;2.60;95.20;;;;;;5131988;27;20387;-39
2022/03/20 06:55:30;;;;;;;40.22;21.27;;;2.60;94.70;;;;;;5142119;27;20458;-39
2022/03/20 06:58:00;;;;;;;42.58;21.45;;;2.70;94.40;;;;;;5151716;27;20417;-39
2022/03/20 07:00:28;;;;;;;40.30;20.83;;;2.70;94.40;;;;;;5151526;27;20023;-39
2022/03/20 07:02:53;;;;;;;39.88;19.30;;;2.80;94.40;;;;;;5151862;27;20049;-39
2022/03/20 07:05:20;;;;;;;39.72;20.88;;;2.80;94.00;;;;;;5151082;27;20072;-39
2022/03/20 07:08:06;;;;;;;35.78;21.08;;;3.00;93.70;;;;;;5145975;27;20391;-38
2022/03/20 07:10:33;;;;;;;41.72;20.88;;;3.00;93.70;;;;;;5034288;28;20033;-39
2022/03/20 07:15:45;;;;;;;41.50;20.90;;;3.10;93.20;;;;;;5035659;28;20461;-38
2022/03/20 07:18:12;;;;;;;40.08;21.67;;;3.20;92.60;;;;;;5036559;28;20243;-39
2022/03/20 07:20:38;;;;;;;37.72;20.52;;;3.30;92.20;;;;;;5035919;28;20495;-38
2022/03/20 07:23:05;;;;;;;41.00;20.83;;;3.40;92.40;;;;;;5122930;27;20024;-39
2022/03/20 07:30:58;;;;;;;42.22;21.13;;;3.60;91.60;;;;;;5118187;27;20030;-39
2022/03/20 07:33:25;;;;;;;36.30;19.45;;;3.70;91.10;;;;;;5118863;27;20012;-39
2022/03/20 07:35:50;;;;;;;41.25;21.60;;;3.70;91.30;;;;;;5120471;27;20571;-39
2022/03/20 07:38:16;;;;;;;36.38;22.02;;;3.80;91.00;;;;;;5119154;27;20115;-39
2022/03/20 07:40:41;;;;;;;43.15;21.58;;;3.90;90.70;;;;;;5119373;27;20020;-40
2022/03/20 07:43:07;;;;;;;39.78;21.17;;;3.90;90.40;;;;;;5120429;27;20019;-38
2022/03/20 07:45:34;;;;;;;39.35;22.02;;;4.00;90.80;;;;;;5120506;27;20020;-38
2022/03/20 07:48:00;;;;;;;36.28;20.38;;;4.10;90.30;;;;;;5117627;27;20055;-38
2022/03/20 07:50:25;;;;;;;40.42;21.88;;;4.10;90.20;;;;;;5120858;27;20054;-39
2022/03/20 07:52:51;;;;;;;36.38;21.35;;;4.20;90.60;;;;;;5121016;27;20019;-39
2022/03/20 07:55:17;;;;;;;48.58;23.85;;;4.30;89.50;;;;;;5127176;27;20035;-39
2022/03/20 07:57:43;;;;;;;38.60;21.33;;;4.50;89.50;;;;;;5118597;27;20501;-40
2022/03/20 08:00:09;;;;;;;46.13;22.75;;;4.60;88.10;;;;;;5110588;27;20106;-39
2022/03/20 08:02:34;;;;;;;44.65;22.73;;;4.70;88.50;;;;;;5107183;28;20027;-38
2022/03/20 08:05:00;;;;;;;38.28;20.23;;;4.90;87.30;;;;;;5108912;28;20373;-38
2022/03/20 08:07:26;;;;;;;41.63;21.88;;;5.00;86.30;;;;;;5107534;28;20035;-38
2022/03/20 08:09:52;;;;;;;44.90;21.67;;;5.10;86.10;;;;;;5107601;28;20460;-39
2022/03/20 08:12:17;;;;;;;39.60;22.75;;;5.10;85.50;;;;;;5109145;28;20028;-39
2022/03/20 08:14:44;;;;;;;35.63;20.73;;;5.30;84.90;;;;;;5108899;28;20045;-38
2022/03/20 08:17:10;;;;;;;40.75;21.73;;;5.50;84.90;;;;;;5108293;28;20481;-39
2022/03/20 08:19:35;;;;;;;42.47;21.73;;;5.60;84.80;;;;;;5107223;28;20347;-39
2022/03/20 08:22:05;;;;;;;42.00;22.48;;;5.70;84.40;;;;;;5108879;28;20027;-39
2022/03/20 08:24:30;;;;;;;41.53;21.40;;;5.90;85.80;;;;;;5139536;27;20065;-39
2022/03/20 08:26:57;;;;;;;36.03;22.02;;;6.10;83.80;;;;;;5149403;27;20027;-39
2022/03/20 08:29:23;;;;;;;36.03;20.58;;;6.40;83.60;;;;;;5150001;27;20509;-39
2022/03/20 08:31:48;;;;;;;38.33;21.10;;;7.10;80.10;;;;;;5150340;27;20058;-38
2022/03/20 08:34:15;;;;;;;37.90;21.20;;;8.60;73.90;;;;;;5130268;27;20019;-40
2022/03/20 08:36:43;;;;;;;34.85;19.73;;;10.60;66.60;;;;;;5128487;27;20022;-39
2022/03/20 08:39:08;;;;;;;32.65;22.02;;;12.30;60.60;;;;;;5129138;27;20072;-40
2022/03/20 08:41:34;;;;;;;32.28;21.60;;;14.00;54.40;;;;;;5128993;28;20042;-39
2022/03/20 08:44:02;;;;;;;34.75;21.83;;;15.40;49.10;;;;;;5129319;28;20023;-39
2022/03/20 08:46:28;;;;;;;31.15;21.08;;;16.60;44.90;;;;;;5128668;27;20031;-41
2022/03/20 08:48:53;;;;;;;32.50;22.10;;;17.30;43.20;;;;;;5129058;27;20031;-39
2022/03/20 08:51:19;;;;;;;28.33;20.35;;;17.70;41.40;;;;;;5128945;27;20117;-40
2022/03/20 08:53:45;;;;;;;27.85;20.08;;;18.50;39.60;;;;;;5133293;27;20413;-39
2022/03/20 08:56:11;;;;;;;27.27;20.00;;;19.30;39.00;;;;;;5146039;27;20055;-39
2022/03/20 08:58:36;;;;;;;27.55;21.55;;;20.20;38.00;;;;;;5132337;27;20019;-40
2022/03/20 09:01:02;;;;;;;25.77;19.33;;;21.10;35.70;;;;;;5117751;28;20050;-38
2022/03/20 09:03:29;;;;;;;23.60;19.55;;;21.30;35.80;;;;;;5115669;28;20068;-40
2022/03/20 09:05:54;;;;;;;26.92;19.73;;;22.40;35.70;;;;;;5109565;27;20039;-40
2022/03/20 09:08:20;;;;;;;23.95;18.63;;;23.30;33.40;;;;;;5106695;28;20035;-39
2022/03/20 09:10:48;;;;;;;22.10;18.67;;;23.40;32.30;;;;;;5108366;28;20066;-40
2022/03/20 09:13:13;;;;;;;24.05;19.08;;;23.20;32.50;;;;;;5108456;28;20060;-40
2022/03/20 09:15:39;;;;;;;25.63;20.20;;;23.90;31.10;;;;;;5107629;28;20038;-40
2022/03/20 09:20:49;;;;;;;26.58;19.58;;;23.90;31.60;;;;;;5110130;28;20119;-40
2022/03/20 09:23:14;;;;;;;23.92;18.30;;;24.30;31.30;;;;;;5130414;27;20105;-40
2022/03/20 09:25:40;;;;;;;26.42;19.48;;;24.80;31.10;;;;;;5145433;27;20023;-40
2022/03/20 09:28:08;;;;;;;25.63;18.95;;;24.70;30.30;;;;;;5151733;27;20532;-40
2022/03/20 09:30:34;;;;;;;26.05;18.75;;;25.00;30.10;;;;;;5153099;27;20031;-40
2022/03/20 09:33:05;;;;;;;23.70;18.65;;;25.10;30.30;;;;;;5153290;27;20015;-40
2022/03/20 09:35:31;;;;;;;;;;;26.10;29.70;;;;;;5152596;27;20383;-39
2022/03/20 09:37:56;;;;;;;24.85;17.98;;;26.10;28.70;;;;;;5152822;27;19907;-39
2022/03/20 09:40:24;;;;;;;23.50;18.10;;;25.80;29.20;;;;;;5152668;27;20517;-39
2022/03/20 09:42:50;;;;;;;22.88;18.35;;;25.60;28.90;;;;;;5152752;27;20418;-39
2022/03/20 09:45:17;;;;;;;27.20;19.17;;;25.50;29.20;;;;;;5151175;27;20018;-39
2022/03/20 09:47:44;;;;;;;26.25;19.25;;;24.70;29.40;;;;;;5152233;27;20467;-39
2022/03/20 09:50:11;;;;;;;24.02;17.83;;;25.40;29.20;;;;;;5152783;27;20038;-39
2022/03/20 09:52:38;;;;;;;22.48;18.33;;;24.80;29.10;;;;;;5146600;27;20010;-39
2022/03/20 09:55:05;;;;;;;23.48;17.25;;;25.50;29.40;;;;;;5142737;27;20063;-39
2022/03/20 09:57:31;;;;;;;21.90;17.95;;;25.60;29.50;;;;;;5151948;27;20026;-39
2022/03/20 10:00:01;;;;;;;21.52;18.08;;;25.00;29.20;;;;;;5127929;27;20032;-39
2022/03/20 10:02:28;;;;;;;22.70;16.38;;;25.40;29.40;;;;;;5111161;28;20027;-39
2022/03/20 10:05:01;;;;;;;19.92;16.42;;;24.90;29.50;;;;;;5110150;28;20508;-39
2022/03/20 10:07:35;;;;;;;22.75;17.70;;;26.00;28.70;;;;;;5108018;28;20054;-39
2022/03/20 10:10:13;;;;;;;22.02;16.05;;;26.20;28.10;;;;;;5109544;28;20111;-38
2022/03/20 10:12:45;;;;;;;22.65;15.63;;;25.20;28.10;;;;;;5109761;28;20034;-40
2022/03/20 10:15:30;;;;;;;18.70;16.70;;;24.60;28.50;;;;;;5109653;28;20016;-38
2022/03/20 10:18:14;;;;;;;20.65;16.25;;;25.80;28.10;;;;;;5109715;28;20024;-38
2022/03/20 10:20:48;;;;;;;20.08;15.88;;;25.70;27.90;;;;;;5110511;28;20020;-38
2022/03/20 10:23:36;;;;;;;18.42;15.02;;;26.00;28.00;;;;;;5128709;27;20018;-38
2022/03/20 10:26:06;;;;;;;20.08;14.15;;;26.00;27.70;;;;;;5147365;27;20410;-39
2022/03/20 10:28:44;;;;;;;17.50;15.07;;;25.50;28.00;;;;;;5152392;27;20029;-38
2022/03/20 10:31:20;;;;;;;22.27;15.20;;;25.80;27.70;;;;;;5151834;27;20133;-38
2022/03/20 10:34:04;;;;;;;19.60;14.75;;;25.10;27.80;;;;;;5152306;27;20203;-38
2022/03/20 10:36:29;;;;;;;21.63;14.25;;;25.60;27.40;;;;;;5151247;27;20124;-38
2022/03/20 10:38:55;;;;;;;19.55;14.45;;;25.60;27.30;;;;;;5151962;27;20088;-38
2022/03/20 10:41:26;;;;;;;19.95;13.82;;;25.10;28.10;;;;;;5151790;27;20023;-38
2022/03/20 10:43:56;;;;;;;17.13;13.90;;;25.50;27.70;;;;;;5152270;27;20014;-38
2022/03/20 10:46:30;;;;;;;16.17;13.05;;;25.80;27.70;;;;;;5151041;27;20058;-39
2022/03/20 10:48:57;;;;;;;17.50;13.18;;;25.80;27.90;;;;;;5151835;27;20073;-39
2022/03/20 10:51:37;;;;;;;19.98;14.13;;;26.80;27.50;;;;;;5151710;27;20041;-39
2022/03/20 10:54:05;;;;;;;23.60;13.10;;;26.70;26.50;;;;;;5137987;27;20026;-39
2022/03/20 10:56:30;;;;;;;17.60;12.52;;;26.90;27.00;;;;;;5150895;27;20151;-39
2022/03/20 10:58:57;;;;;;;17.23;11.77;;;26.20;26.30;;;;;;5151072;27;20114;-39
2022/03/20 11:01:36;;;;;;;16.95;12.35;;;25.50;26.70;;;;;;5151408;27;20389;-39
2022/03/20 11:04:04;;;;;;;18.60;12.40;;;25.00;26.90;;;;;;5151578;27;20046;-39
2022/03/20 11:06:30;;;;;;;19.83;12.48;;;25.10;27.00;;;;;;5150733;27;20038;-42
2022/03/20 11:08:56;;;;;;;16.73;11.50;;;25.00;26.60;;;;;;5151129;27;20015;-39
2022/03/20 11:11:24;;;;;;;14.70;11.15;;;25.40;26.60;;;;;;5151089;27;20033;-40
2022/03/20 11:13:50;;;;;;;16.13;11.38;;;25.40;26.60;;;;;;5151394;27;20450;-38
2022/03/20 11:16:22;;;;;;;15.68;12.15;;;24.70;26.40;;;;;;5150518;27;20098;-39
2022/03/20 11:18:51;;;;;;;14.88;11.93;;;25.20;26.60;;;;;;5151430;27;20023;-39
2022/03/20 11:21:24;;;;;;;31.58;13.90;;;25.50;26.90;;;;;;5150027;27;20054;-39
2022/03/20 11:23:51;;;;;;;20.73;12.95;;;25.60;27.10;;;;;;5124585;27;20035;-39
2022/03/20 11:26:20;;;;;;;35.53;14.68;;;25.10;26.70;;;;;;5148301;27;20535;-39
2022/03/20 11:28:49;;;;;;;28.65;13.30;;;24.10;26.90;;;;;;5150971;27;20107;-39
2022/03/20 11:31:15;;;;;;;18.23;12.13;;;23.00;27.20;;;;;;5150703;27;20390;-38
2022/03/20 11:33:43;;;;;;;20.27;12.85;;;22.70;27.60;;;;;;5150817;27;20058;-40
2022/03/20 11:36:09;;;;;;;18.00;12.05;;;23.40;28.10;;;;;;5148780;27;20015;-39
2022/03/20 11:38:37;;;;;;;18.42;12.52;;;24.20;27.50;;;;;;5150702;27;20672;-39
2022/03/20 11:41:19;;;;;;;18.23;11.98;;;23.30;27.80;;;;;;5149318;27;20470;-39
2022/03/20 11:44:06;;;;;;;17.67;13.13;;;23.30;27.40;;;;;;5150090;27;20473;-39
2022/03/20 11:46:33;;;;;;;24.27;11.57;;;23.90;27.50;;;;;;5149875;27;20134;-39
2022/03/20 11:49:17;;;;;;;23.63;13.02;;;24.00;27.80;;;;;;5150510;27;20535;-39
2022/03/20 11:51:56;;;;;;;20.95;12.45;;;23.90;27.70;;;;;;5150467;27;20023;-39
2022/03/20 11:54:30;;;;;;;16.58;12.32;;;23.90;26.90;;;;;;5138890;27;20019;-39
2022/03/20 11:56:55;;;;;;;19.73;12.60;;;23.00;27.50;;;;;;5149773;27;20491;-38
2022/03/20 11:59:46;;;;;;;16.40;12.73;;;23.40;27.90;;;;;;5150226;27;20061;-39
2022/03/20 12:02:17;;;;;;;19.35;12.25;;;22.20;28.30;;;;;;5150374;27;20026;-39
2022/03/20 12:05:01;;;;;;;18.58;12.48;;;23.00;28.10;;;;;;5150278;27;20052;-39
2022/03/20 12:07:58;;;;;;;15.38;12.38;;;23.50;28.10;;;;;;5149189;27;20054;-39
2022/03/20 12:10:55;;;;;;;17.50;12.68;;;23.60;27.40;;;;;;5150114;27;20027;-38
2022/03/20 12:13:34;;;;;;;17.38;11.68;;;22.30;27.30;;;;;;5150049;27;20026;-38
2022/03/20 12:15:59;;;;;;;17.20;12.45;;;22.20;28.40;;;;;;5149350;27;20391;-38
2022/03/20 12:18:25;;;;;;;19.27;13.10;;;22.30;28.70;;;;;;5150387;27;20023;-38
2022/03/20 12:20:55;;;;;;;22.45;12.95;;;21.50;28.90;;;;;;5149968;27;20282;-38
2022/03/20 12:23:47;;;;;;;20.35;12.38;;;21.50;29.10;;;;;;5143449;27;20538;-37
2022/03/20 12:26:41;;;;;;;16.33;12.52;;;20.80;30.30;;;;;;5142980;27;20031;-37
2022/03/20 12:29:27;;;;;;;16.95;13.30;;;20.30;30.30;;;;;;5150230;27;20014;-37
2022/03/20 12:32:03;;;;;;;17.60;12.23;;;20.10;30.40;;;;;;5148654;27;20026;-37
2022/03/20 12:34:30;;;;;;;19.02;11.70;;;20.40;30.70;;;;;;5149785;27;20034;-37
2022/03/20 12:37:32;;;;;;;20.42;12.55;;;20.60;30.90;;;;;;5149157;27;20026;-37
2022/03/20 12:40:10;;;;;;;19.33;12.07;;;20.10;30.40;;;;;;5149580;27;20023;-38
2022/03/20 12:42:38;;;;;;;23.05;11.77;;;20.10;30.70;;;;;;5148692;27;20563;-38
2022/03/20 12:45:07;;;;;;;17.90;11.82;;;19.80;30.70;;;;;;5149655;27;20018;-37
2022/03/20 12:47:33;;;;;;;17.23;11.65;;;19.30;31.10;;;;;;5147569;27;20075;-38
2022/03/20 12:50:03;;;;;;;17.58;11.07;;;19.40;31.50;;;;;;5149855;27;20452;-37
2022/03/20 12:52:31;;;;;;;16.40;10.80;;;18.90;30.90;;;;;;5146579;27;20567;-38
2022/03/20 12:55:00;;;;;;;16.92;10.25;;;18.80;30.30;;;;;;5143547;27;20263;-38
2022/03/20 12:57:45;;;;;;;14.80;11.20;;;19.00;30.60;;;;;;5153248;27;20030;-37
2022/03/20 13:00:13;;;;;;;12.85;10.10;;;18.80;31.70;;;;;;5152510;27;20027;-38
2022/03/20 13:03:00;;;;;;;17.02;10.48;;;18.60;31.60;;;;;;5153804;27;20141;-39
2022/03/20 13:05:27;;;;;;;16.05;10.07;;;18.00;31.30;;;;;;5153353;27;20125;-39
2022/03/20 13:07:53;;;;;;;16.98;10.38;;;18.20;31.40;;;;;;5151847;27;20019;-39
2022/03/20 13:10:21;;;;;;;14.80;9.82;;;18.20;31.60;;;;;;5153491;27;20022;-39
2022/03/20 13:12:57;;;;;;;13.63;9.50;;;18.50;31.30;;;;;;5153422;27;20445;-39
2022/03/20 13:15:28;;;;;;;17.83;10.27;;;18.30;31.80;;;;;;5152963;27;20490;-38